Time;durP1;ratioP1;P1;durP2;ratioP2;P2;SDS_P1;SDS_P2;PMS_P1;PMS_P2;Temp;Humidity;BMP_temperature;BMP_pressure;BME280_temperature;BME280_humidity;BME280_pressure;Samples;Min_cycle;Max_cycle;Signal;HPM_P1;HPM_P2
2021/10/14 00:01:03;;;;;;;1.50;1.40;;;18.40;65.80;;;;;;5054256;28;20257;-75
2021/10/14 00:03:28;;;;;;;1.83;1.25;;;18.40;65.90;;;;;;5054505;28;20167;-75
2021/10/14 00:05:54;;;;;;;1.55;1.13;;;18.40;65.80;;;;;;5052068;28;20885;-76
2021/10/14 00:08:19;;;;;;;2.70;1.27;;;18.40;65.80;;;;;;5054452;28;20178;-72
2021/10/14 00:10:45;;;;;;;2.15;1.40;;;18.40;65.90;;;;;;5054122;28;20296;-70
2021/10/14 00:13:10;;;;;;;1.65;1.23;;;18.40;65.80;;;;;;5053215;28;20175;-71
2021/10/14 00:15:36;;;;;;;2.00;1.30;;;18.40;65.90;;;;;;5054103;28;20580;-71
2021/10/14 00:18:02;;;;;;;2.05;1.00;;;18.40;65.90;;;;;;5053832;28;20175;-72
2021/10/14 00:20:27;;;;;;;2.08;1.20;;;18.30;65.80;;;;;;5053309;28;20238;-73
2021/10/14 00:22:53;;;;;;;1.83;1.17;;;18.30;65.80;;;;;;5053945;28;20183;-74
2021/10/14 00:25:19;;;;;;;2.55;1.20;;;18.30;65.80;;;;;;5053943;28;20229;-73
2021/10/14 00:27:46;;;;;;;0.93;0.90;;;18.30;65.80;;;;;;5053287;28;20179;-73
2021/10/14 00:30:11;;;;;;;2.55;1.00;;;18.30;65.80;;;;;;5053646;28;20195;-74
2021/10/14 00:32:37;;;;;;;1.48;1.10;;;18.30;65.90;;;;;;5053883;28;20280;-73
2021/10/14 00:35:02;;;;;;;1.80;1.05;;;18.30;65.90;;;;;;5052790;28;20171;-73
2021/10/14 00:37:28;;;;;;;1.60;1.10;;;18.30;65.90;;;;;;5053960;28;20675;-74
2021/10/14 00:39:53;;;;;;;1.50;1.30;;;18.30;65.90;;;;;;5053475;28;20207;-73
2021/10/14 00:42:19;;;;;;;1.25;1.02;;;18.30;65.90;;;;;;5052950;28;20194;-73
2021/10/14 00:44:49;;;;;;;1.40;1.27;;;18.30;65.90;;;;;;5053676;28;20502;-73
2021/10/14 00:47:18;;;;;;;1.05;0.88;;;18.30;65.90;;;;;;5053810;28;20225;-73
2021/10/14 00:49:44;;;;;;;1.55;1.10;;;18.30;65.90;;;;;;5052747;28;20175;-73
2021/10/14 00:52:10;;;;;;;1.25;1.08;;;18.30;65.90;;;;;;5053434;28;20179;-72
2021/10/14 00:54:35;;;;;;;2.03;1.35;;;18.30;65.90;;;;;;5053557;28;20241;-72
2021/10/14 00:57:01;;;;;;;1.77;1.08;;;18.30;65.90;;;;;;5052695;28;20171;-73
2021/10/14 00:59:27;;;;;;;3.17;1.20;;;18.30;65.90;;;;;;5052324;28;20175;-75
2021/10/14 01:01:53;;;;;;;2.05;1.08;;;18.30;65.90;;;;;;5051137;28;20214;-75
2021/10/14 01:04:18;;;;;;;1.05;0.95;;;18.30;65.90;;;;;;5053240;28;20684;-74
2021/10/14 01:06:43;;;;;;;1.77;1.17;;;18.20;65.80;;;;;;5053439;28;20179;-74
2021/10/14 01:09:09;;;;;;;1.55;1.10;;;18.20;65.90;;;;;;5052946;28;20167;-71
2021/10/14 01:11:34;;;;;;;1.52;1.20;;;18.20;65.90;;;;;;5053262;28;20175;-70
2021/10/14 01:14:00;;;;;;;1.33;1.00;;;18.20;65.90;;;;;;5052083;28;20538;-71
2021/10/14 01:16:25;;;;;;;1.65;1.20;;;18.30;66.00;;;;;;5052406;28;20179;-72
2021/10/14 01:18:51;;;;;;;1.23;0.88;;;18.20;65.90;;;;;;5052662;28;20246;-73
2021/10/14 01:21:16;;;;;;;1.25;1.10;;;18.20;65.90;;;;;;5052222;28;20696;-73
2021/10/14 01:23:42;;;;;;;2.17;1.20;;;18.20;65.90;;;;;;5051161;28;20173;-75
2021/10/14 01:26:07;;;;;;;1.00;0.90;;;18.20;65.90;;;;;;5052459;28;20322;-73
2021/10/14 01:28:33;;;;;;;0.77;0.77;;;18.20;65.90;;;;;;5053010;28;20339;-73
2021/10/14 01:30:59;;;;;;;1.50;1.30;;;18.20;65.90;;;;;;5051963;28;20232;-73
2021/10/14 01:33:24;;;;;;;1.20;1.10;;;18.20;65.90;;;;;;5052766;28;20210;-73
2021/10/14 01:35:50;;;;;;;1.15;1.05;;;18.20;65.90;;;;;;5052710;28;20665;-73
2021/10/14 01:38:17;;;;;;;1.83;1.08;;;18.20;65.90;;;;;;5052228;28;20254;-74
2021/10/14 01:40:43;;;;;;;0.98;0.90;;;18.20;65.90;;;;;;5052948;28;20207;-73
2021/10/14 01:43:13;;;;;;;2.03;1.30;;;18.20;65.90;;;;;;5052610;28;20258;-75
2021/10/14 01:45:38;;;;;;;1.85;1.25;;;18.20;65.90;;;;;;5052018;28;20562;-73
2021/10/14 01:48:04;;;;;;;1.02;0.90;;;18.20;65.90;;;;;;5052652;28;20634;-73
2021/10/14 01:50:29;;;;;;;2.45;1.40;;;18.20;65.90;;;;;;5052966;28;20175;-72
2021/10/14 01:52:55;;;;;;;1.25;1.00;;;18.20;65.90;;;;;;5051944;28;20175;-72
2021/10/14 01:55:20;;;;;;;1.58;0.95;;;18.20;65.90;;;;;;5052958;28;20252;-72
2021/10/14 01:57:46;;;;;;;1.83;1.25;;;18.10;65.90;;;;;;5052745;28;20175;-72
2021/10/14 02:00:12;;;;;;;1.42;1.10;;;18.20;65.90;;;;;;5051425;28;20600;-73
2021/10/14 02:02:37;;;;;;;1.33;0.90;;;18.20;65.90;;;;;;5052575;28;20278;-74
2021/10/14 02:05:03;;;;;;;1.38;1.23;;;18.10;65.80;;;;;;5052438;28;20194;-73
2021/10/14 02:07:29;;;;;;;1.40;1.13;;;18.10;65.90;;;;;;5051873;28;20213;-73
2021/10/14 02:09:55;;;;;;;1.85;1.00;;;18.10;65.90;;;;;;5052256;28;20608;-71
2021/10/14 02:12:20;;;;;;;1.88;1.50;;;18.10;65.90;;;;;;5051737;28;20175;-71
2021/10/14 02:14:46;;;;;;;1.45;1.20;;;18.10;65.90;;;;;;5052552;28;20229;-72
2021/10/14 02:17:11;;;;;;;2.00;1.25;;;18.10;65.90;;;;;;5052005;28;20171;-72
2021/10/14 02:19:37;;;;;;;1.42;1.20;;;18.10;65.90;;;;;;5051621;28;20582;-73
2021/10/14 02:22:02;;;;;;;1.40;1.30;;;18.10;65.90;;;;;;5052221;28;20247;-73
2021/10/14 02:24:28;;;;;;;2.00;1.27;;;18.10;65.90;;;;;;5052466;28;20634;-75
2021/10/14 02:26:53;;;;;;;1.63;1.00;;;18.10;65.90;;;;;;5051189;28;20223;-73
2021/10/14 02:29:19;;;;;;;1.55;1.05;;;18.10;65.90;;;;;;5052441;28;20638;-73
2021/10/14 02:31:44;;;;;;;1.27;1.10;;;18.10;66.00;;;;;;5052427;28;20201;-72
2021/10/14 02:34:10;;;;;;;1.42;1.33;;;18.10;65.90;;;;;;5055258;28;20176;-72
2021/10/14 02:36:35;;;;;;;1.27;1.17;;;18.10;65.90;;;;;;5056263;28;20226;-72
2021/10/14 02:39:01;;;;;;;1.30;1.10;;;18.10;65.90;;;;;;5055885;28;20577;-73
2021/10/14 02:41:26;;;;;;;1.50;1.08;;;18.10;65.90;;;;;;5055215;28;20656;-73
2021/10/14 02:43:52;;;;;;;1.40;1.30;;;18.10;66.00;;;;;;5055742;28;20179;-74
2021/10/14 02:46:17;;;;;;;1.55;1.30;;;18.00;65.90;;;;;;5055851;28;20251;-73
2021/10/14 02:48:42;;;;;;;1.83;1.50;;;18.10;66.00;;;;;;5055296;28;20167;-72
2021/10/14 02:51:08;;;;;;;1.90;1.15;;;18.10;66.00;;;;;;5056015;28;20262;-72
2021/10/14 02:53:34;;;;;;;1.77;1.30;;;18.00;65.90;;;;;;5056219;28;20171;-71
2021/10/14 02:55:59;;;;;;;1.38;1.27;;;18.10;66.00;;;;;;5054696;28;20182;-72
2021/10/14 02:58:24;;;;;;;1.50;1.00;;;18.00;65.90;;;;;;5055700;28;20175;-73
2021/10/14 03:00:50;;;;;;;1.70;1.40;;;18.00;65.90;;;;;;5055107;28;20807;-74
2021/10/14 03:03:15;;;;;;;1.27;1.17;;;18.00;65.90;;;;;;5055067;28;20175;-75
2021/10/14 03:05:41;;;;;;;1.23;1.10;;;18.00;65.90;;;;;;5055410;28;20185;-73
2021/10/14 03:08:06;;;;;;;1.15;1.00;;;18.00;65.90;;;;;;5055232;28;21002;-73
2021/10/14 03:10:32;;;;;;;1.40;1.30;;;18.00;65.90;;;;;;5054817;28;20182;-70
2021/10/14 03:12:57;;;;;;;1.42;1.30;;;18.00;65.90;;;;;;5055117;28;20183;-71
2021/10/14 03:15:23;;;;;;;1.30;1.20;;;18.00;65.90;;;;;;5055297;28;20286;-71
2021/10/14 03:17:48;;;;;;;1.95;1.30;;;18.00;65.90;;;;;;5054279;28;20175;-73
2021/10/14 03:20:14;;;;;;;1.77;1.55;;;18.00;65.90;;;;;;5055351;28;20199;-73
2021/10/14 03:22:39;;;;;;;2.05;1.55;;;18.00;65.90;;;;;;5054455;28;20194;-75
2021/10/14 03:25:07;;;;;;;1.42;1.10;;;18.00;65.90;;;;;;5054654;28;20626;-74
2021/10/14 03:27:32;;;;;;;1.35;1.25;;;18.00;65.90;;;;;;5055258;28;20660;-73
2021/10/14 03:29:58;;;;;;;1.60;1.50;;;18.00;66.00;;;;;;5054095;28;20187;-74
2021/10/14 03:32:23;;;;;;;2.13;1.63;;;18.00;66.00;;;;;;5055200;28;20171;-73
2021/10/14 03:34:49;;;;;;;1.98;1.25;;;18.00;66.00;;;;;;5054679;28;20233;-73
2021/10/14 03:37:15;;;;;;;1.48;1.38;;;18.00;65.90;;;;;;5054344;28;20262;-73
2021/10/14 03:39:41;;;;;;;2.08;1.42;;;18.00;66.00;;;;;;5054974;28;20263;-73
2021/10/14 03:42:06;;;;;;;1.50;1.40;;;18.00;66.80;;;;;;5054482;28;20232;-73
2021/10/14 03:44:32;;;;;;;1.65;1.10;;;18.00;66.00;;;;;;5053359;28;20653;-74
2021/10/14 03:46:57;;;;;;;1.75;1.38;;;18.00;66.00;;;;;;5054627;28;20183;-73
2021/10/14 03:49:22;;;;;;;1.80;1.50;;;18.00;66.00;;;;;;5054963;28;20167;-72
2021/10/14 03:51:48;;;;;;;1.27;1.17;;;17.90;65.90;;;;;;5053687;28;20202;-71
2021/10/14 03:54:13;;;;;;;1.77;1.30;;;17.90;65.90;;;;;;5054677;28;20168;-72
2021/10/14 03:56:39;;;;;;;1.50;1.40;;;17.90;66.80;;;;;;5054670;28;20183;-72
2021/10/14 03:59:04;;;;;;;1.73;1.50;;;17.90;66.00;;;;;;5053445;28;20172;-74
2021/10/14 04:01:30;;;;;;;1.50;1.40;;;18.00;66.00;;;;;;5054542;28;20768;-75
2021/10/14 04:03:55;;;;;;;3.35;1.55;;;17.90;66.00;;;;;;5054307;28;20179;-73
2021/10/14 04:06:21;;;;;;;2.47;1.40;;;17.90;65.90;;;;;;5053891;28;20171;-72
2021/10/14 04:08:46;;;;;;;1.95;1.60;;;17.90;66.00;;;;;;5054266;28;20171;-71
2021/10/14 04:11:12;;;;;;;1.60;1.48;;;17.90;66.00;;;;;;5054044;28;20179;-70
2021/10/14 04:13:37;;;;;;;1.40;1.30;;;17.90;66.00;;;;;;5053527;28;20564;-70
2021/10/14 04:16:03;;;;;;;2.67;1.63;;;17.90;66.00;;;;;;5054062;28;20178;-71
2021/10/14 04:18:29;;;;;;;2.63;1.90;;;17.90;66.00;;;;;;5054233;28;20175;-71
2021/10/14 04:20:54;;;;;;;1.60;1.50;;;17.90;66.00;;;;;;5053251;28;20211;-72
2021/10/14 04:23:20;;;;;;;2.22;1.75;;;17.90;66.00;;;;;;5054254;28;20167;-73
2021/10/14 04:25:46;;;;;;;1.77;1.67;;;17.90;66.00;;;;;;5053785;28;20226;-74
2021/10/14 04:28:12;;;;;;;2.15;1.60;;;17.90;66.00;;;;;;5053209;28;20194;-72
2021/10/14 04:30:38;;;;;;;2.35;1.63;;;17.90;66.80;;;;;;5053864;28;20183;-73
2021/10/14 04:33:03;;;;;;;2.10;1.70;;;17.90;66.00;;;;;;5053036;28;20521;-73
2021/10/14 04:35:29;;;;;;;1.98;1.58;;;17.90;66.00;;;;;;5052834;28;20175;-72
2021/10/14 04:37:54;;;;;;;1.67;1.58;;;17.90;66.00;;;;;;5053538;28;20229;-72
2021/10/14 04:40:20;;;;;;;1.55;1.45;;;17.90;66.00;;;;;;5052889;28;20234;-74
2021/10/14 04:42:45;;;;;;;1.70;1.60;;;17.90;66.00;;;;;;5053600;28;20668;-72
2021/10/14 04:45:11;;;;;;;2.42;1.60;;;17.90;66.00;;;;;;5053405;28;20175;-74
2021/10/14 04:47:37;;;;;;;1.50;1.40;;;17.90;66.00;;;;;;5053130;28;20232;-72
2021/10/14 04:50:03;;;;;;;1.95;1.73;;;17.90;66.00;;;;;;5053393;28;20186;-72
2021/10/14 04:52:28;;;;;;;1.75;1.40;;;17.90;66.00;;;;;;5053707;28;20183;-72
2021/10/14 04:54:54;;;;;;;1.92;1.73;;;17.90;66.10;;;;;;5052242;28;20182;-72
2021/10/14 04:57:19;;;;;;;1.75;1.60;;;17.80;66.00;;;;;;5052776;28;20175;-74
2021/10/14 04:59:45;;;;;;;1.70;1.50;;;17.90;66.10;;;;;;5053275;28;20182;-75
2021/10/14 05:02:10;;;;;;;1.60;1.50;;;17.80;66.00;;;;;;5052191;28;20564;-75
2021/10/14 05:04:35;;;;;;;1.63;1.52;;;17.80;66.00;;;;;;5053330;28;20209;-75
2021/10/14 05:07:01;;;;;;;2.40;1.70;;;17.80;66.00;;;;;;5053195;28;20171;-72
2021/10/14 05:09:27;;;;;;;1.60;1.45;;;17.80;66.00;;;;;;5052507;28;20237;-71
2021/10/14 05:11:52;;;;;;;1.92;1.80;;;17.80;66.00;;;;;;5052844;28;20205;-70
2021/10/14 05:14:18;;;;;;;2.55;1.80;;;17.80;66.00;;;;;;5053219;28;20188;-71
2021/10/14 05:16:43;;;;;;;2.75;1.42;;;17.80;66.00;;;;;;5052612;28;20171;-72
2021/10/14 05:19:08;;;;;;;4.30;1.90;;;17.80;66.00;;;;;;5052984;28;20217;-72
2021/10/14 05:21:34;;;;;;;1.50;1.38;;;17.80;66.00;;;;;;5052952;28;20564;-73
2021/10/14 05:24:00;;;;;;;1.75;1.65;;;17.80;66.00;;;;;;5052065;28;20171;-74
2021/10/14 05:26:26;;;;;;;1.60;1.50;;;17.80;66.10;;;;;;5052819;28;20223;-73
2021/10/14 05:28:52;;;;;;;2.50;1.77;;;17.80;66.00;;;;;;5052698;28;20167;-72
2021/10/14 05:31:18;;;;;;;1.70;1.60;;;17.80;66.10;;;;;;5052402;28;20209;-73
2021/10/14 05:33:44;;;;;;;2.05;1.40;;;17.80;66.00;;;;;;5053109;28;20173;-74
2021/10/14 05:36:09;;;;;;;2.10;1.42;;;17.80;66.10;;;;;;5051832;28;20175;-72
2021/10/14 05:38:35;;;;;;;1.70;1.60;;;17.80;66.10;;;;;;5052821;28;20522;-71
2021/10/14 05:41:00;;;;;;;1.85;1.75;;;17.80;66.10;;;;;;5052466;28;20210;-73
2021/10/14 05:43:26;;;;;;;1.40;1.30;;;17.80;66.10;;;;;;5052023;28;20217;-72
2021/10/14 05:45:51;;;;;;;1.30;1.20;;;17.80;66.10;;;;;;5052603;28;20183;-75
2021/10/14 05:48:17;;;;;;;2.20;1.80;;;17.80;66.10;;;;;;5052911;28;20175;-72
2021/10/14 05:50:42;;;;;;;1.85;1.67;;;17.80;66.10;;;;;;5052084;28;20183;-71
2021/10/14 05:53:08;;;;;;;1.90;1.70;;;17.80;66.10;;;;;;5052285;28;20668;-72
2021/10/14 05:55:33;;;;;;;2.25;1.73;;;17.70;66.00;;;;;;5052638;28;20190;-73
2021/10/14 05:57:59;;;;;;;2.03;1.88;;;17.80;66.10;;;;;;5051743;28;20171;-75
2021/10/14 06:00:24;;;;;;;1.58;1.45;;;17.80;66.10;;;;;;5052860;28;20291;-75
2021/10/14 06:02:50;;;;;;;2.00;1.80;;;17.70;66.10;;;;;;5052549;28;20227;-75
2021/10/14 06:05:15;;;;;;;1.75;1.65;;;17.80;66.10;;;;;;5052378;28;20175;-74
2021/10/14 06:07:41;;;;;;;2.25;1.60;;;17.70;66.10;;;;;;5054372;28;20201;-72
2021/10/14 06:10:07;;;;;;;2.92;1.90;;;17.70;66.10;;;;;;5056346;28;20745;-71
2021/10/14 06:12:32;;;;;;;1.85;1.50;;;17.70;66.10;;;;;;5055753;28;20521;-71
2021/10/14 06:14:58;;;;;;;2.17;1.70;;;17.70;66.10;;;;;;5056286;28;20177;-72
2021/10/14 06:17:23;;;;;;;2.15;1.90;;;17.80;66.20;;;;;;5056575;28;20175;-72
2021/10/14 06:19:49;;;;;;;1.92;1.55;;;17.70;66.10;;;;;;5055429;28;20195;-74
2021/10/14 06:22:14;;;;;;;1.65;1.50;;;17.70;66.10;;;;;;5056313;28;20206;-75
2021/10/14 06:24:40;;;;;;;1.80;1.40;;;17.70;67.00;;;;;;5056010;28;20248;-74
2021/10/14 06:27:05;;;;;;;2.40;1.60;;;17.70;66.10;;;;;;5055246;28;20732;-73
2021/10/14 06:29:31;;;;;;;1.88;1.30;;;17.70;66.10;;;;;;5056208;28;20559;-72
2021/10/14 06:31:56;;;;;;;2.40;1.65;;;17.70;66.10;;;;;;5056078;28;20198;-73
2021/10/14 06:34:22;;;;;;;1.77;1.55;;;17.70;66.20;;;;;;5055576;28;20254;-72
2021/10/14 06:36:47;;;;;;;2.08;1.55;;;17.70;66.20;;;;;;5056030;28;20203;-73
2021/10/14 06:39:13;;;;;;;2.03;1.73;;;17.70;66.20;;;;;;5056108;28;20221;-72
2021/10/14 06:41:38;;;;;;;2.00;1.70;;;17.70;66.10;;;;;;5055105;28;20265;-74
2021/10/14 06:44:07;;;;;;;1.55;1.45;;;17.70;66.10;;;;;;5055602;28;20229;-72
2021/10/14 06:46:34;;;;;;;2.45;1.63;;;17.70;66.10;;;;;;5055313;28;20205;-72
2021/10/14 06:49:00;;;;;;;1.42;1.33;;;17.70;66.20;;;;;;5055683;28;20167;-70
2021/10/14 06:51:25;;;;;;;1.85;1.65;;;17.70;66.10;;;;;;5055966;28;20194;-66
2021/10/14 06:53:51;;;;;;;5.57;2.75;;;17.70;66.30;;;;;;5054848;28;20195;-66
2021/10/14 06:56:16;;;;;;;2.78;2.00;;;17.70;67.00;;;;;;5055582;28;20179;-66
2021/10/14 06:58:42;;;;;;;2.00;1.80;;;17.70;66.90;;;;;;5055866;28;20626;-74
2021/10/14 07:01:07;;;;;;;2.72;2.08;;;17.70;66.60;;;;;;5054724;28;20264;-69
2021/10/14 07:03:33;;;;;;;2.72;1.77;;;17.70;66.40;;;;;;5055671;28;20194;-67
2021/10/14 07:05:58;;;;;;;3.50;2.45;;;17.70;66.50;;;;;;5055100;28;20178;-66
2021/10/14 07:08:24;;;;;;;3.75;2.78;;;17.70;67.20;;;;;;5054842;28;20656;-66
2021/10/14 07:10:49;;;;;;;4.82;2.67;;;17.80;67.70;;;;;;5055100;28;20202;-65
2021/10/14 07:13:15;;;;;;;3.78;2.03;;;17.70;67.80;;;;;;5055580;28;20690;-64
2021/10/14 07:15:40;;;;;;;5.20;3.00;;;17.80;67.80;;;;;;5054790;28;20245;-65
2021/10/14 07:18:07;;;;;;;3.45;2.30;;;17.80;68.90;;;;;;5054408;28;20163;-65
2021/10/14 07:20:33;;;;;;;4.75;2.63;;;17.80;68.10;;;;;;5054660;28;20250;-65
2021/10/14 07:22:58;;;;;;;4.95;2.88;;;17.80;68.10;;;;;;5054278;28;20199;-65
2021/10/14 07:25:24;;;;;;;4.28;2.45;;;17.80;68.10;;;;;;5054840;28;20277;-64
2021/10/14 07:27:49;;;;;;;2.95;2.28;;;17.80;68.30;;;;;;5054987;28;20171;-64
2021/10/14 07:30:15;;;;;;;3.75;3.17;;;17.80;68.30;;;;;;5054567;28;20175;-65
2021/10/14 07:32:40;;;;;;;3.15;2.65;;;17.80;68.30;;;;;;5054899;28;20603;-66
2021/10/14 07:35:06;;;;;;;3.63;2.78;;;17.80;68.30;;;;;;5054736;28;20179;-66
2021/10/14 07:37:32;;;;;;;6.10;3.25;;;17.80;68.20;;;;;;5054219;28;20178;-68
2021/10/14 07:39:57;;;;;;;7.10;2.92;;;17.80;68.00;;;;;;5054612;28;20656;-70
2021/10/14 07:42:23;;;;;;;6.18;2.95;;;17.80;68.20;;;;;;5054735;28;20250;-68
2021/10/14 07:44:49;;;;;;;6.38;3.53;;;17.80;67.90;;;;;;5054012;28;20682;-68
2021/10/14 07:47:14;;;;;;;6.45;4.53;;;17.70;67.90;;;;;;5054923;28;20233;-66
2021/10/14 07:49:40;;;;;;;5.60;4.18;;;17.70;67.90;;;;;;5054660;28;20175;-70
2021/10/14 07:52:05;;;;;;;5.18;3.75;;;17.70;68.00;;;;;;5053816;28;20634;-74
2021/10/14 07:54:31;;;;;;;6.50;3.60;;;17.80;68.20;;;;;;5054640;28;20270;-71
2021/10/14 07:56:56;;;;;;;7.70;3.30;;;17.90;68.50;;;;;;5053657;28;20267;-71
2021/10/14 07:59:22;;;;;;;5.50;3.85;;;18.00;68.20;;;;;;5054696;28;20175;-65
2021/10/14 08:01:47;;;;;;;7.80;3.80;;;18.10;68.00;;;;;;5053957;28;20806;-66
2021/10/14 08:04:13;;;;;;;6.22;3.80;;;18.30;67.80;;;;;;5053744;28;20179;-71
2021/10/14 08:06:39;;;;;;;5.80;3.63;;;18.60;67.20;;;;;;5054357;28;20179;-69
2021/10/14 08:09:04;;;;;;;5.95;3.60;;;18.80;66.50;;;;;;5052726;28;20239;-68
2021/10/14 08:11:30;;;;;;;4.25;3.00;;;19.00;66.00;;;;;;5052310;28;20229;-69
2021/10/14 08:13:55;;;;;;;8.32;2.70;;;19.30;65.20;;;;;;5052874;28;20171;-71
2021/10/14 08:16:21;;;;;;;5.03;3.13;;;19.60;64.50;;;;;;5052710;28;20187;-71
2021/10/14 08:18:46;;;;;;;10.35;2.95;;;19.80;63.60;;;;;;5049471;28;20248;-71
2021/10/14 08:21:12;;;;;;;6.38;2.55;;;20.00;63.10;;;;;;5052614;28;20252;-71
2021/10/14 08:23:37;;;;;;;14.40;3.15;;;20.10;62.80;;;;;;5052937;28;20321;-71
2021/10/14 08:26:05;;;;;;;3.63;2.50;;;20.10;62.70;;;;;;5051288;28;20301;-70
2021/10/14 08:28:30;;;;;;;4.25;2.53;;;20.10;62.80;;;;;;5052752;28;20178;-69
2021/10/14 08:30:56;;;;;;;4.53;2.47;;;20.10;62.80;;;;;;5052213;28;20167;-71
2021/10/14 08:33:21;;;;;;;3.72;2.10;;;20.10;62.60;;;;;;5052398;28;20179;-71
2021/10/14 08:35:47;;;;;;;3.97;2.35;;;20.20;62.80;;;;;;5053981;28;20179;-72
2021/10/14 08:38:12;;;;;;;4.00;2.50;;;20.10;62.80;;;;;;5053671;28;20586;-73
2021/10/14 08:40:38;;;;;;;3.40;2.15;;;20.10;62.90;;;;;;5052974;28;20218;-71
2021/10/14 08:43:06;;;;;;;5.40;2.58;;;20.10;63.20;;;;;;5053183;28;20171;-74
2021/10/14 08:45:35;;;;;;;4.22;2.35;;;20.00;63.30;;;;;;5053698;28;20179;-76
2021/10/14 08:48:03;;;;;;;4.90;2.88;;;20.00;63.50;;;;;;5052489;28;20698;-75
2021/10/14 08:50:29;;;;;;;4.57;2.45;;;19.90;63.60;;;;;;5056260;28;20206;-74
2021/10/14 08:52:54;;;;;;;3.45;2.40;;;19.80;63.90;;;;;;5065847;28;20700;-76
2021/10/14 08:55:20;;;;;;;3.38;2.15;;;19.70;64.10;;;;;;5056264;28;20171;-75
2021/10/14 08:57:46;;;;;;;4.05;2.40;;;19.60;64.20;;;;;;5054138;28;20179;-75
2021/10/14 09:00:12;;;;;;;5.45;2.80;;;19.60;64.50;;;;;;5072266;28;20170;-75
2021/10/14 09:02:37;;;;;;;3.17;2.63;;;19.50;64.60;;;;;;5068976;28;20187;-75
2021/10/14 09:05:06;;;;;;;4.60;2.53;;;19.50;64.60;;;;;;5051904;28;20201;-74
2021/10/14 09:07:32;;;;;;;5.05;2.40;;;19.40;64.70;;;;;;5052412;28;20218;-70
2021/10/14 09:09:59;;;;;;;5.65;2.50;;;19.40;64.80;;;;;;5053163;28;20183;-69
2021/10/14 09:12:24;;;;;;;6.28;2.65;;;19.40;64.90;;;;;;5053085;28;20179;-66
2021/10/14 09:14:54;;;;;;;7.00;2.95;;;19.40;65.00;;;;;;5052229;28;20544;-65
2021/10/14 09:17:36;;;;;;;5.10;2.50;;;19.30;64.90;;;;;;5053139;28;20249;-67
2021/10/14 09:20:33;;;;;;;4.10;2.83;;;19.30;65.20;;;;;;5051690;28;20189;-71
2021/10/14 09:23:00;;;;;;;6.07;2.90;;;19.20;65.20;;;;;;5052362;28;20289;-75
2021/10/14 09:25:55;;;;;;;5.95;2.60;;;19.20;65.40;;;;;;5052899;28;20219;-74
2021/10/14 09:28:23;;;;;;;4.43;2.33;;;19.30;65.20;;;;;;5047695;28;20187;-74
2021/10/14 09:30:59;;;;;;;3.25;2.60;;;19.30;65.10;;;;;;5052630;28;20250;-74
2021/10/14 09:33:35;;;;;;;4.82;2.65;;;19.20;65.10;;;;;;5052875;28;20653;-74
2021/10/14 09:36:14;;;;;;;6.25;2.72;;;19.20;65.10;;;;;;5051960;28;20645;-75
2021/10/14 09:38:40;;;;;;;3.72;2.60;;;19.20;65.20;;;;;;5052697;28;20175;-75
2021/10/14 09:41:10;;;;;;;3.40;2.40;;;19.20;65.30;;;;;;5052178;28;20269;-75
2021/10/14 09:43:35;;;;;;;4.25;2.55;;;19.10;65.30;;;;;;5051763;28;20225;-74
2021/10/14 09:46:01;;;;;;;5.05;2.40;;;19.10;65.40;;;;;;5052390;28;20541;-75
2021/10/14 09:48:26;;;;;;;3.90;2.50;;;19.10;65.50;;;;;;5056704;28;20177;-74
2021/10/14 09:50:53;;;;;;;4.45;2.90;;;19.10;65.40;;;;;;5055952;28;20178;-74
2021/10/14 09:53:20;;;;;;;2.50;2.30;;;19.20;65.10;;;;;;5055775;28;20186;-73
2021/10/14 09:55:46;;;;;;;4.60;2.63;;;19.30;65.00;;;;;;5052394;28;20660;-73
2021/10/14 09:58:11;;;;;;;3.80;2.30;;;19.30;64.90;;;;;;5051383;28;20179;-72
2021/10/14 10:00:38;;;;;;;3.33;2.55;;;19.30;64.90;;;;;;5052426;28;20199;-72
2021/10/14 10:03:04;;;;;;;5.47;2.50;;;19.20;64.90;;;;;;5052258;28;20179;-73
2021/10/14 10:05:30;;;;;;;2.97;2.42;;;19.30;65.00;;;;;;5051839;28;20175;-72
2021/10/14 10:07:55;;;;;;;3.45;2.45;;;19.20;65.10;;;;;;5050962;28;20191;-69
2021/10/14 10:10:22;;;;;;;6.75;2.97;;;19.20;65.20;;;;;;5052712;28;20787;-66
2021/10/14 10:12:48;;;;;;;5.05;2.45;;;19.10;65.40;;;;;;5050634;28;20179;-66
2021/10/14 10:15:13;;;;;;;5.00;2.65;;;19.10;65.60;;;;;;5051416;28;20540;-66
2021/10/14 10:17:42;;;;;;;6.28;2.63;;;19.10;65.60;;;;;;5051807;28;20538;-75
2021/10/14 10:20:11;;;;;;;4.82;2.60;;;19.10;66.40;;;;;;5052248;28;20179;-75
2021/10/14 10:22:36;;;;;;;5.15;3.03;;;19.10;65.60;;;;;;5050937;28;20634;-74
2021/10/14 10:25:23;;;;;;;3.40;2.58;;;19.10;65.60;;;;;;5051331;28;20214;-74
2021/10/14 10:27:49;;;;;;;4.97;2.90;;;19.10;65.60;;;;;;5052122;28;20189;-70
2021/10/14 10:30:35;;;;;;;5.78;3.05;;;19.20;65.50;;;;;;5052382;28;20171;-72
2021/10/14 10:33:01;;;;;;;6.22;2.65;;;19.20;65.40;;;;;;5051266;28;20258;-74
2021/10/14 10:35:47;;;;;;;4.88;2.85;;;19.20;65.40;;;;;;5052424;28;20180;-67
2021/10/14 10:38:32;;;;;;;6.50;2.78;;;19.20;65.50;;;;;;5052338;28;20241;-71
2021/10/14 10:40:58;;;;;;;5.60;2.92;;;19.10;65.70;;;;;;5050088;28;20693;-70
2021/10/14 10:43:29;;;;;;;7.72;2.70;;;19.10;65.80;;;;;;5051947;28;20254;-70
2021/10/14 10:45:56;;;;;;;5.28;2.60;;;19.10;65.80;;;;;;5051256;28;20179;-70
2021/10/14 10:48:38;;;;;;;7.30;2.67;;;19.10;65.90;;;;;;5052267;28;20332;-71
2021/10/14 10:51:04;;;;;;;4.05;3.00;;;19.10;66.00;;;;;;5051878;28;20175;-70
2021/10/14 10:53:42;;;;;;;4.40;2.85;;;19.00;66.00;;;;;;5052733;28;20171;-71
2021/10/14 10:56:27;;;;;;;5.82;3.08;;;19.00;66.10;;;;;;5055472;28;20309;-70
2021/10/14 10:58:52;;;;;;;4.13;2.60;;;18.90;66.00;;;;;;5055421;28;20629;-70
2021/10/14 11:01:18;;;;;;;3.53;2.70;;;18.90;66.10;;;;;;5054886;28;20222;-70
2021/10/14 11:03:53;;;;;;;2.88;2.63;;;18.90;66.20;;;;;;5055666;28;20183;-69
2021/10/14 11:06:18;;;;;;;3.83;3.10;;;18.90;66.30;;;;;;5055629;28;20244;-71
2021/10/14 11:08:44;;;;;;;2.90;2.20;;;18.90;66.30;;;;;;5054696;28;20167;-72
2021/10/14 11:11:12;;;;;;;4.78;2.70;;;18.90;66.30;;;;;;5055254;28;20217;-71
2021/10/14 11:13:38;;;;;;;6.13;2.60;;;18.90;66.30;;;;;;5055552;28;20180;-71
2021/10/14 11:16:07;;;;;;;3.40;2.30;;;18.90;66.30;;;;;;5054563;28;20179;-71
2021/10/14 11:18:33;;;;;;;3.35;3.00;;;18.90;66.20;;;;;;5055564;28;20174;-72
2021/10/14 11:21:02;;;;;;;4.80;2.97;;;18.90;66.20;;;;;;5054347;28;20248;-72
2021/10/14 11:23:36;;;;;;;5.05;3.03;;;18.90;66.20;;;;;;5055436;28;20527;-69
2021/10/14 11:26:06;;;;;;;3.58;2.72;;;18.90;66.30;;;;;;5054836;28;20226;-69
2021/10/14 11:28:56;;;;;;;3.63;2.85;;;18.90;66.40;;;;;;5054529;28;20175;-70
2021/10/14 11:31:23;;;;;;;3.15;2.63;;;18.90;66.40;;;;;;5054092;28;20182;-70
2021/10/14 11:33:52;;;;;;;2.80;2.58;;;18.90;66.40;;;;;;5054930;28;20190;-71
2021/10/14 11:36:19;;;;;;;3.50;3.03;;;18.90;66.40;;;;;;5054432;28;20171;-72
2021/10/14 11:38:57;;;;;;;4.28;2.88;;;18.90;66.30;;;;;;5054993;28;20175;-72
2021/10/14 11:41:22;;;;;;;2.90;2.63;;;18.90;66.20;;;;;;5053748;28;20214;-72
2021/10/14 11:43:57;;;;;;;3.28;2.83;;;18.90;66.30;;;;;;5053580;28;20175;-71
2021/10/14 11:46:29;;;;;;;3.90;2.78;;;18.90;66.40;;;;;;5054920;28;20185;-70
2021/10/14 11:49:05;;;;;;;4.88;2.90;;;18.80;66.40;;;;;;5054113;28;20186;-72
2021/10/14 11:51:31;;;;;;;2.85;2.45;;;18.80;66.50;;;;;;5054840;28;20277;-71
2021/10/14 11:54:10;;;;;;;3.25;2.85;;;18.90;66.60;;;;;;5054365;28;20263;-71
2021/10/14 11:56:41;;;;;;;3.42;2.42;;;18.90;66.40;;;;;;5054094;28;20190;-70
2021/10/14 11:59:07;;;;;;;3.45;3.03;;;19.00;66.20;;;;;;5054450;28;20170;-69
2021/10/14 12:01:37;;;;;;;4.63;2.60;;;19.00;66.10;;;;;;5054373;28;20211;-71
2021/10/14 12:04:02;;;;;;;2.83;2.47;;;19.00;66.10;;;;;;5053512;28;20175;-72
2021/10/14 12:06:28;;;;;;;2.97;2.55;;;19.00;66.30;;;;;;5054180;28;20885;-70
2021/10/14 12:08:54;;;;;;;3.78;2.80;;;18.90;66.20;;;;;;5052803;28;20639;-70
2021/10/14 12:11:22;;;;;;;4.63;2.67;;;18.90;66.30;;;;;;5052699;28;20175;-71
2021/10/14 12:14:01;;;;;;;4.22;2.63;;;18.90;66.40;;;;;;5054089;28;20179;-71
2021/10/14 12:16:27;;;;;;;4.38;2.50;;;18.90;66.40;;;;;;5054288;28;20179;-71
2021/10/14 12:18:53;;;;;;;2.80;2.42;;;18.90;66.40;;;;;;5053059;28;20548;-73
2021/10/14 12:21:35;;;;;;;3.65;2.55;;;18.90;66.40;;;;;;5054075;28;20214;-71
2021/10/14 12:24:07;;;;;;;3.00;2.70;;;18.90;66.30;;;;;;5053805;28;20207;-70
2021/10/14 12:26:34;;;;;;;3.60;2.65;;;18.90;66.30;;;;;;5054015;28;20226;-69
2021/10/14 12:29:19;;;;;;;2.60;2.38;;;18.90;66.30;;;;;;5053773;28;20179;-68
2021/10/14 12:31:45;;;;;;;2.50;2.30;;;18.90;66.30;;;;;;5053100;28;20172;-70
2021/10/14 12:34:10;;;;;;;3.38;3.08;;;18.90;66.40;;;;;;5053594;28;20187;-71
2021/10/14 12:36:46;;;;;;;3.72;2.65;;;18.80;66.40;;;;;;5052664;28;20533;-70
2021/10/14 12:39:18;;;;;;;2.50;2.25;;;18.90;66.50;;;;;;5052615;28;20676;-71
2021/10/14 12:41:54;;;;;;;2.55;2.35;;;18.90;66.60;;;;;;5053669;28;20588;-71
2021/10/14 12:44:25;;;;;;;2.38;2.17;;;18.90;66.50;;;;;;5053805;28;20217;-71
2021/10/14 12:49:29;;;;;;;3.03;2.75;;;19.00;66.30;;;;;;5053903;28;20171;-69